Aérodrome :
LOGIN :

S'inscrire | Disclaimer

   EN    FR    IT 

 










Légende :    VFR   VFR Marginal   IFR   IFR Intensif   IFR Très Intensif
Visi : 
Plafond : 
>= 8 km
>= 3000ft
5 à 8 km
1000 à 3000 ft
1500m à 5 km
500 à 1000 ft
800 à 1500m
200 à 500 ft
< 800m
< 200 ft
Symboles :   Orages  Brouillard  Fortes neiges  Fortes précipitations  Vent > 20 kt
SIGMETs :   Divers  Orages  Givrage  Turbulence  Onde Orograph.  Cendres Volcan.







- Altitude de l'aérodrome : 126 ft
- Code IATA : TIA


LATI - Rinas Mother Teresa Arpt - Tirana

DERNIER METAR :
  • 240350Z VRB02KT CAVOK M02/M09 Q1025 NOSIG

METARs EXPIRÉS :
  • 240320Z VRB02KT CAVOK M03/M09 Q1025 NOSIG
  • 240250Z VRB02KT CAVOK M02/M10 Q1024 NOSIG
  • 240220Z VRB03KT CAVOK M01/M09 Q1025 NOSIG
  • 240150Z 33003KT 290V350 CAVOK 01/M10 Q1025 NOSIG
  • 240120Z VRB02KT CAVOK 00/M10 Q1025 NOSIG

TAF TAF LATI
Valide du 24 à 00h jusqu'au 25 à 00h UTC


232300Z 2400/2424 36008KT CAVOK TX11/2412Z TNM02/2405Z
TEMPO 2402/2415 06012G22KT
Pas de NOTAMs connus pour ce terrain.
1 SIGMET publié pour la FIR Tirana (LAAA) :
 
Turbulence forte
LAAA SIGMET 1 VALID 240200/240600 LATI
LAAA TIRANA FIR SEV TURB FCST ENTIRE FIR FL200/340 STNR NC=



MET'MAP, la Météo Aéronautique d'un coup d'oeil ! - Copyright ORBIFLY Décembre 2007 - Disclaimer

ORBIFLY MET'MAP TEAM :

Programmation & Développement : Alexandra Zaïnal
Conception & Développement : Baudouin d'Aumeries
Co-Programmation & Développement : Marc-Olivier Méhu
Soutien technique & logistique : Manuel Goepfert

Contact : metmap@orbifly.com




SOURCES & CREDITS :

   NOAA